createdAt,value
2018-04-15T00:00:34.630Z,1018.07
2018-04-15T00:01:34.481Z,1018.03
2018-04-15T00:02:34.572Z,1018.02
2018-04-15T00:03:34.424Z,1018.05
2018-04-15T00:04:34.615Z,1018.03
2018-04-15T00:05:34.694Z,1017.99
2018-04-15T00:06:34.493Z,1018.03
2018-04-15T00:07:34.748Z,1018.03
2018-04-15T00:08:34.618Z,1018.06
2018-04-15T00:09:34.515Z,1018.04
2018-04-15T00:10:34.559Z,1018.02
2018-04-15T00:11:34.700Z,1018
2018-04-15T00:12:34.543Z,1018.07
2018-04-15T00:13:34.555Z,1017.99
2018-04-15T00:14:34.502Z,1017.98
2018-04-15T00:15:34.611Z,1017.99
2018-04-15T00:16:34.756Z,1018.02
2018-04-15T00:17:34.434Z,1017.94
2018-04-15T00:18:34.497Z,1017.96
2018-04-15T00:19:34.600Z,1017.96
2018-04-15T00:20:34.529Z,1017.93
2018-04-15T00:21:34.425Z,1017.98
2018-04-15T00:22:34.609Z,1017.96
2018-04-15T00:23:34.627Z,1017.96
2018-04-15T00:24:34.572Z,1017.99
2018-04-15T00:25:34.397Z,1017.98
2018-04-15T00:26:34.572Z,1017.91
2018-04-15T00:27:34.566Z,1017.97
2018-04-15T00:28:34.399Z,1017.9
2018-04-15T00:29:34.588Z,1017.9
2018-04-15T00:30:34.530Z,1017.89
2018-04-15T00:31:35.144Z,1017.92
2018-04-15T00:32:34.503Z,1017.91
2018-04-15T00:33:34.619Z,1017.91
2018-04-15T00:34:34.490Z,1017.95
2018-04-15T00:35:34.629Z,1017.93
2018-04-15T00:36:34.452Z,1017.92
2018-04-15T00:37:34.526Z,1017.91
2018-04-15T00:38:34.486Z,1017.89
2018-04-15T00:39:34.573Z,1017.9
2018-04-15T00:40:34.598Z,1017.9
2018-04-15T00:41:34.562Z,1017.88
2018-04-15T00:42:34.724Z,1017.84
2018-04-15T00:43:34.722Z,1017.87
2018-04-15T00:44:34.551Z,1017.86
2018-04-15T00:45:34.401Z,1017.86
2018-04-15T00:46:34.710Z,1017.83
2018-04-15T00:47:34.504Z,1017.82
2018-04-15T00:48:34.676Z,1017.86
2018-04-15T00:49:34.705Z,1017.84
2018-04-15T00:50:34.519Z,1017.85
2018-04-15T00:51:34.545Z,1017.86
2018-04-15T00:52:34.534Z,1017.82
2018-04-15T00:53:34.429Z,1017.83
2018-04-15T00:54:34.606Z,1017.82
2018-04-15T00:55:34.450Z,1017.83
2018-04-15T00:56:34.633Z,1017.83
2018-04-15T00:57:34.645Z,1017.8
2018-04-15T00:58:34.477Z,1017.83
2018-04-15T00:59:34.426Z,1017.8
2018-04-15T01:00:34.532Z,1017.78
2018-04-15T01:01:34.626Z,1017.83
2018-04-15T01:02:34.529Z,1017.84
2018-04-15T01:03:34.749Z,1017.87
2018-04-15T01:04:34.588Z,1017.86
2018-04-15T01:05:34.576Z,1017.84
2018-04-15T01:06:34.500Z,1017.88
2018-04-15T01:07:34.609Z,1017.85
2018-04-15T01:08:34.559Z,1017.85
2018-04-15T01:09:34.776Z,1017.82
2018-04-15T01:10:34.425Z,1017.82
2018-04-15T01:11:34.501Z,1017.85
2018-04-15T01:12:34.534Z,1017.84
2018-04-15T01:13:34.411Z,1017.84
2018-04-15T01:14:34.539Z,1017.85
2018-04-15T01:15:34.451Z,1017.86
2018-04-15T01:16:34.685Z,1017.89
2018-04-15T01:17:34.609Z,1017.85
2018-04-15T01:18:34.640Z,1017.85
2018-04-15T01:19:34.412Z,1017.83
2018-04-15T01:20:34.635Z,1017.87
2018-04-15T01:21:34.560Z,1017.83
2018-04-15T01:22:34.409Z,1017.86
2018-04-15T01:23:34.647Z,1017.81
2018-04-15T01:24:34.521Z,1017.85
2018-04-15T01:25:34.441Z,1017.8
2018-04-15T01:26:34.529Z,1017.81
2018-04-15T01:27:34.436Z,1017.82
2018-04-15T01:28:34.579Z,1017.79
2018-04-15T01:29:34.537Z,1017.8
2018-04-15T01:30:34.570Z,1017.8
2018-04-15T01:31:34.590Z,1017.8
2018-04-15T01:32:34.426Z,1017.77
2018-04-15T01:33:34.440Z,1017.78
2018-04-15T01:34:34.791Z,1017.79
2018-04-15T01:35:34.675Z,1017.81
2018-04-15T01:36:34.477Z,1017.85
2018-04-15T01:37:34.534Z,1017.85
2018-04-15T01:38:34.507Z,1017.88
2018-04-15T01:39:34.601Z,1017.88
2018-04-15T01:40:34.462Z,1017.88
2018-04-15T01:41:34.371Z,1017.86
2018-04-15T01:42:34.497Z,1017.83
2018-04-15T01:43:34.432Z,1017.82
2018-04-15T01:44:34.517Z,1017.85
2018-04-15T01:45:34.608Z,1017.84
2018-04-15T01:46:34.498Z,1017.81
2018-04-15T01:47:34.543Z,1017.85
2018-04-15T01:48:34.501Z,1017.83
2018-04-15T01:49:34.571Z,1017.85
2018-04-15T01:50:34.607Z,1017.84
2018-04-15T01:51:34.393Z,1017.94
2018-04-15T01:52:34.414Z,1017.92
2018-04-15T01:53:34.479Z,1017.91
2018-04-15T01:54:34.611Z,1017.93
2018-04-15T01:55:34.400Z,1017.93
2018-04-15T01:56:34.538Z,1017.92
2018-04-15T01:57:34.567Z,1017.94
2018-04-15T01:58:34.503Z,1017.9
2018-04-15T01:59:34.405Z,1017.91
2018-04-15T02:00:34.574Z,1017.96
2018-04-15T02:01:34.572Z,1017.98
2018-04-15T02:02:34.590Z,1017.99
2018-04-15T02:03:34.540Z,1018.01
2018-04-15T02:04:34.438Z,1018.01
2018-04-15T02:05:34.589Z,1017.98
2018-04-15T02:06:34.647Z,1018.03
2018-04-15T02:07:34.477Z,1017.99
2018-04-15T02:08:34.519Z,1018
2018-04-15T02:09:34.371Z,1018.01
2018-04-15T02:10:34.545Z,1017.98
2018-04-15T02:11:34.371Z,1017.99
2018-04-15T02:12:34.434Z,1017.99
2018-04-15T02:13:34.683Z,1018.03
2018-04-15T02:14:36.557Z,1018.02
2018-04-15T02:15:34.459Z,1018.11
2018-04-15T02:16:34.624Z,1018.1
2018-04-15T02:17:34.484Z,1018.11
2018-04-15T02:18:34.579Z,1018.15
2018-04-15T02:19:34.508Z,1018.16
2018-04-15T02:20:34.450Z,1018.2
2018-04-15T02:21:34.583Z,1018.17
2018-04-15T02:22:34.504Z,1018.12
2018-04-15T02:23:34.599Z,1018.17
2018-04-15T02:24:34.431Z,1018.11
2018-04-15T02:25:34.440Z,1018.16
2018-04-15T02:26:34.574Z,1018.18
2018-04-15T02:27:34.564Z,1018.21
2018-04-15T02:28:34.355Z,1018.25
2018-04-15T02:29:34.537Z,1018.26
2018-04-15T02:30:34.558Z,1018.26
2018-04-15T02:31:34.498Z,1018.2
2018-04-15T02:32:34.569Z,1018.15
2018-04-15T02:33:34.576Z,1018.2
2018-04-15T02:34:34.531Z,1018.18
2018-04-15T02:35:34.503Z,1018.21
2018-04-15T02:36:34.475Z,1018.19
2018-04-15T02:37:34.439Z,1018.2
2018-04-15T02:38:34.624Z,1018.19
2018-04-15T02:39:34.507Z,1018.16
2018-04-15T02:40:34.458Z,1018.1
2018-04-15T02:41:34.614Z,1018.08
2018-04-15T02:42:34.419Z,1018.06
2018-04-15T02:43:34.874Z,1018.04
2018-04-15T02:44:34.649Z,1018.02
2018-04-15T02:45:34.448Z,1018.05
2018-04-15T02:46:34.543Z,1018.06
2018-04-15T02:47:34.617Z,1017.99
2018-04-15T02:48:34.405Z,1017.96
2018-04-15T02:49:34.416Z,1017.96
2018-04-15T02:50:34.484Z,1017.91
2018-04-15T02:51:34.608Z,1017.87
2018-04-15T02:52:34.385Z,1017.87
2018-04-15T02:53:34.590Z,1017.86
2018-04-15T02:54:34.461Z,1017.82
2018-04-15T02:55:34.434Z,1017.82
2018-04-15T02:56:34.375Z,1017.84
2018-04-15T02:57:34.512Z,1017.83
2018-04-15T02:58:34.648Z,1017.86
2018-04-15T02:59:34.469Z,1017.88
2018-04-15T03:00:34.419Z,1017.91
2018-04-15T03:01:34.649Z,1017.9
2018-04-15T03:02:34.517Z,1017.9
2018-04-15T03:03:34.519Z,1017.88
2018-04-15T03:04:34.450Z,1017.88
2018-04-15T03:05:34.590Z,1017.88
2018-04-15T03:06:34.422Z,1017.85
2018-04-15T03:07:34.415Z,1017.82
2018-04-15T03:08:34.404Z,1017.84
2018-04-15T03:09:34.566Z,1017.81
2018-04-15T03:10:34.739Z,1017.81
2018-04-15T03:11:34.470Z,1017.81
2018-04-15T03:12:34.634Z,1017.83
2018-04-15T03:13:34.790Z,1017.82
2018-04-15T03:14:34.448Z,1017.76
2018-04-15T03:15:34.580Z,1017.74
2018-04-15T03:16:34.368Z,1017.74
2018-04-15T03:17:34.502Z,1017.69
2018-04-15T03:18:34.563Z,1017.71
2018-04-15T03:19:34.422Z,1017.73
2018-04-15T03:20:34.513Z,1017.72
2018-04-15T03:21:34.849Z,1017.77
2018-04-15T03:22:34.409Z,1017.78
2018-04-15T03:23:34.509Z,1017.74
2018-04-15T03:24:34.337Z,1017.73
2018-04-15T03:25:34.315Z,1017.71
2018-04-15T03:26:34.493Z,1017.71
2018-04-15T03:27:34.508Z,1017.74
2018-04-15T03:28:34.435Z,1017.73
2018-04-15T03:29:34.512Z,1017.74
2018-04-15T03:30:34.378Z,1017.7
2018-04-15T03:31:34.510Z,1017.71
2018-04-15T03:32:34.552Z,1017.68
2018-04-15T03:33:34.618Z,1017.66
2018-04-15T03:34:34.514Z,1017.66
2018-04-15T03:35:34.577Z,1017.67
2018-04-15T03:36:34.482Z,1017.63
2018-04-15T03:37:34.358Z,1017.67
2018-04-15T03:38:34.392Z,1017.64
2018-04-15T03:39:34.531Z,1017.66
2018-04-15T03:40:34.547Z,1017.64
2018-04-15T03:41:34.393Z,1017.66
2018-04-15T03:42:34.424Z,1017.59
2018-04-15T03:43:34.586Z,1017.57
2018-04-15T03:44:34.421Z,1017.59
2018-04-15T03:45:34.331Z,1017.56
2018-04-15T03:46:34.525Z,1017.59
2018-04-15T03:47:34.478Z,1017.6
2018-04-15T03:48:34.522Z,1017.59
2018-04-15T03:49:34.452Z,1017.55
2018-04-15T03:50:34.569Z,1017.53
2018-04-15T03:51:34.449Z,1017.55
2018-04-15T03:52:34.360Z,1017.58
2018-04-15T03:53:34.435Z,1017.55
2018-04-15T03:54:34.395Z,1017.59
2018-04-15T03:55:34.523Z,1017.6
2018-04-15T03:56:34.570Z,1017.58
2018-04-15T03:57:34.621Z,1017.59
2018-04-15T03:58:34.561Z,1017.63
2018-04-15T03:59:34.323Z,1017.64
2018-04-15T04:00:34.548Z,1017.63
2018-04-15T04:01:34.643Z,1017.6
2018-04-15T04:02:34.603Z,1017.68
2018-04-15T04:03:34.463Z,1017.68
2018-04-15T04:04:34.618Z,1017.69
2018-04-15T04:05:34.674Z,1017.7
2018-04-15T04:06:34.327Z,1017.67
2018-04-15T04:07:34.480Z,1017.68
2018-04-15T04:08:34.600Z,1017.65
2018-04-15T04:09:34.460Z,1017.64
2018-04-15T04:10:34.401Z,1017.61
2018-04-15T04:11:34.501Z,1017.61
2018-04-15T04:12:34.585Z,1017.59
2018-04-15T04:13:34.350Z,1017.57
2018-04-15T04:14:34.603Z,1017.64
2018-04-15T04:15:34.376Z,1017.67
2018-04-15T04:16:34.423Z,1017.64
2018-04-15T04:17:34.737Z,1017.63
2018-04-15T04:18:34.520Z,1017.66
2018-04-15T04:19:34.381Z,1017.63
2018-04-15T04:20:34.333Z,1017.64
2018-04-15T04:21:34.420Z,1017.59
2018-04-15T04:22:34.603Z,1017.63
2018-04-15T04:23:34.556Z,1017.62
2018-04-15T04:24:34.528Z,1017.57
2018-04-15T04:25:34.534Z,1017.54
2018-04-15T04:26:34.441Z,1017.54
2018-04-15T04:27:34.755Z,1017.51
2018-04-15T04:28:34.360Z,1017.56
2018-04-15T04:29:34.443Z,1017.52
2018-04-15T04:30:34.464Z,1017.55
2018-04-15T04:31:34.422Z,1017.54
2018-04-15T04:32:34.554Z,1017.53
2018-04-15T04:33:34.339Z,1017.49
2018-04-15T04:34:34.326Z,1017.46
2018-04-15T04:35:34.444Z,1017.45
2018-04-15T04:36:34.496Z,1017.44
2018-04-15T04:37:34.520Z,1017.38
2018-04-15T04:38:34.552Z,1017.4
2018-04-15T04:39:34.555Z,1017.41
2018-04-15T04:40:34.407Z,1017.37
2018-04-15T04:41:34.467Z,1017.35
2018-04-15T04:42:34.688Z,1017.41
2018-04-15T04:43:34.390Z,1017.37
2018-04-15T04:44:34.520Z,1017.37
2018-04-15T04:45:34.431Z,1017.4
2018-04-15T04:46:34.620Z,1017.35
2018-04-15T04:47:34.494Z,1017.44
2018-04-15T04:48:34.327Z,1017.45
2018-04-15T04:49:34.356Z,1017.4
2018-04-15T04:50:34.686Z,1017.44
2018-04-15T04:51:34.428Z,1017.39
2018-04-15T04:52:34.587Z,1017.41
2018-04-15T04:53:34.533Z,1017.42
2018-04-15T04:54:34.372Z,1017.4
2018-04-15T04:55:34.544Z,1017.43
2018-04-15T04:56:34.544Z,1017.43
2018-04-15T04:57:34.513Z,1017.41
2018-04-15T04:58:34.373Z,1017.45
2018-04-15T04:59:34.379Z,1017.43
2018-04-15T05:00:34.350Z,1017.46
2018-04-15T05:01:34.597Z,1017.47
2018-04-15T05:02:35.828Z,1017.47
2018-04-15T05:03:34.410Z,1017.47
2018-04-15T05:04:34.392Z,1017.47
2018-04-15T05:05:34.588Z,1017.49
2018-04-15T05:06:34.617Z,1017.49
2018-04-15T05:07:34.532Z,1017.49
2018-04-15T05:08:34.383Z,1017.49
2018-04-15T05:09:34.313Z,1017.53
2018-04-15T05:10:34.660Z,1017.52
2018-04-15T05:11:34.482Z,1017.5
2018-04-15T05:12:34.335Z,1017.49
2018-04-15T05:13:34.455Z,1017.5
2018-04-15T05:14:34.331Z,1017.44
2018-04-15T05:15:34.735Z,1017.44
2018-04-15T05:16:34.348Z,1017.43
2018-04-15T05:17:34.396Z,1017.41
2018-04-15T05:18:34.523Z,1017.4
2018-04-15T05:19:34.403Z,1017.42
2018-04-15T05:20:34.492Z,1017.37
2018-04-15T05:21:34.577Z,1017.36
2018-04-15T05:22:34.420Z,1017.34
2018-04-15T05:23:34.443Z,1017.29
2018-04-15T05:24:34.527Z,1017.3
2018-04-15T05:25:34.500Z,1017.28
2018-04-15T05:26:34.537Z,1017.29
2018-04-15T05:27:34.461Z,1017.28
2018-04-15T05:28:34.454Z,1017.32
2018-04-15T05:29:34.496Z,1017.29
2018-04-15T05:30:34.316Z,1017.29
2018-04-15T05:31:34.530Z,1017.3
2018-04-15T05:32:34.429Z,1017.31
2018-04-15T05:33:34.471Z,1017.33
2018-04-15T05:34:34.384Z,1017.33
2018-04-15T05:35:34.504Z,1017.36
2018-04-15T05:36:34.477Z,1017.35
2018-04-15T05:37:34.791Z,1017.37
2018-04-15T05:38:34.512Z,1017.35
2018-04-15T05:39:34.409Z,1017.33
2018-04-15T05:40:34.520Z,1017.34
2018-04-15T05:41:34.402Z,1017.32
2018-04-15T05:42:34.404Z,1017.37
2018-04-15T05:43:34.409Z,1017.38
2018-04-15T05:44:34.272Z,1017.36
2018-04-15T05:45:34.553Z,1017.36
2018-04-15T05:46:34.352Z,1017.39
2018-04-15T05:47:34.590Z,1017.37
2018-04-15T05:48:34.476Z,1017.34
2018-04-15T05:49:34.518Z,1017.38
2018-04-15T05:50:34.426Z,1017.38
2018-04-15T05:51:34.417Z,1017.41
2018-04-15T05:52:34.508Z,1017.4
2018-04-15T05:53:34.425Z,1017.42
2018-04-15T05:54:34.496Z,1017.41
2018-04-15T05:55:34.450Z,1017.45
2018-04-15T05:56:34.441Z,1017.43
2018-04-15T05:57:34.532Z,1017.45
2018-04-15T05:58:34.381Z,1017.45
2018-04-15T05:59:34.522Z,1017.43
2018-04-15T06:00:34.393Z,1017.47
2018-04-15T06:01:34.549Z,1017.44
2018-04-15T06:02:34.583Z,1017.42
2018-04-15T06:03:34.455Z,1017.39
2018-04-15T06:04:34.436Z,1017.4
2018-04-15T06:05:34.374Z,1017.43
2018-04-15T06:06:34.350Z,1017.42
2018-04-15T06:07:34.596Z,1017.45
2018-04-15T06:08:34.403Z,1017.43
2018-04-15T06:09:34.563Z,1017.48
2018-04-15T06:10:34.559Z,1017.47
2018-04-15T06:11:34.338Z,1017.47
2018-04-15T06:12:34.294Z,1017.45
2018-04-15T06:13:34.385Z,1017.39
2018-04-15T06:14:34.532Z,1017.44
2018-04-15T06:15:34.406Z,1017.37
2018-04-15T06:16:34.374Z,1017.37
2018-04-15T06:17:34.460Z,1017.35
2018-04-15T06:18:34.490Z,1017.39
2018-04-15T06:19:34.432Z,1017.34
2018-04-15T06:20:34.642Z,1017.39
2018-04-15T06:21:34.616Z,1017.35
2018-04-15T06:22:34.523Z,1017.35
2018-04-15T06:23:34.509Z,1017.37
2018-04-15T06:24:34.785Z,1017.33
2018-04-15T06:25:34.511Z,1017.36
2018-04-15T06:26:34.341Z,1017.37
2018-04-15T06:27:34.396Z,1017.34
2018-04-15T06:28:34.512Z,1017.34
2018-04-15T06:29:34.495Z,1017.31
2018-04-15T06:30:34.367Z,1017.31
2018-04-15T06:31:34.330Z,1017.3
2018-04-15T06:32:34.526Z,1017.31
2018-04-15T06:33:34.547Z,1017.3
2018-04-15T06:34:34.278Z,1017.29
2018-04-15T06:35:34.435Z,1017.29
2018-04-15T06:36:34.510Z,1017.26
2018-04-15T06:37:34.369Z,1017.26
2018-04-15T06:38:34.377Z,1017.27
2018-04-15T06:39:34.422Z,1017.26
2018-04-15T06:40:34.316Z,1017.25
2018-04-15T06:41:34.494Z,1017.24
2018-04-15T06:42:34.513Z,1017.18
2018-04-15T06:43:34.308Z,1017.2
2018-04-15T06:44:34.316Z,1017.2
2018-04-15T06:45:34.856Z,1017.17
2018-04-15T06:46:34.578Z,1017.16
2018-04-15T06:47:34.484Z,1017.16
2018-04-15T06:48:34.303Z,1017.17
2018-04-15T06:49:34.432Z,1017.18
2018-04-15T06:50:34.498Z,1017.22
2018-04-15T06:51:34.401Z,1017.17
2018-04-15T06:52:34.343Z,1017.2
2018-04-15T06:53:34.389Z,1017.18
2018-04-15T06:54:34.402Z,1017.16
2018-04-15T06:55:34.471Z,1017.18
2018-04-15T06:56:34.366Z,1017.19
2018-04-15T06:57:34.563Z,1017.17
2018-04-15T06:58:34.417Z,1017.17
2018-04-15T06:59:34.455Z,1017.1
2018-04-15T07:00:34.343Z,1017.1
2018-04-15T07:01:34.601Z,1017.16
2018-04-15T07:02:34.638Z,1017.15
2018-04-15T07:03:34.310Z,1017.17
2018-04-15T07:04:34.516Z,1017.2
2018-04-15T07:05:34.432Z,1017.16
2018-04-15T07:06:34.465Z,1017.14
2018-04-15T07:07:34.457Z,1017.15
2018-04-15T07:08:34.313Z,1017.15
2018-04-15T07:09:34.617Z,1017.17
2018-04-15T07:10:34.383Z,1017.11
2018-04-15T07:11:34.518Z,1017.11
2018-04-15T07:12:34.575Z,1017.07
2018-04-15T07:13:34.509Z,1017.06
2018-04-15T07:14:34.495Z,1017.09
2018-04-15T07:15:34.379Z,1017.1
2018-04-15T07:16:34.511Z,1017.12
2018-04-15T07:17:34.385Z,1017.14
2018-04-15T07:18:34.450Z,1017.09
2018-04-15T07:19:34.360Z,1017.12
2018-04-15T07:20:34.361Z,1017.14
2018-04-15T07:21:34.515Z,1017.1
2018-04-15T07:22:34.351Z,1017.07
2018-04-15T07:23:34.521Z,1017.08
2018-04-15T07:24:34.352Z,1017.1
2018-04-15T07:25:34.272Z,1017.08
2018-04-15T07:26:34.345Z,1017.05
2018-04-15T07:27:34.355Z,1017.08
2018-04-15T07:28:34.371Z,1017.08
2018-04-15T07:29:34.561Z,1017.04
2018-04-15T07:30:34.389Z,1017.1
2018-04-15T07:31:34.491Z,1017.09
2018-04-15T07:32:34.367Z,1017.12
2018-04-15T07:33:34.675Z,1017.09
2018-04-15T07:34:34.536Z,1017.11
2018-04-15T07:35:34.540Z,1017.06
2018-04-15T07:36:34.461Z,1017.07
2018-04-15T07:37:34.525Z,1017.04
2018-04-15T07:38:34.480Z,1017.04
2018-04-15T07:39:34.284Z,1017
2018-04-15T07:40:34.383Z,1017.07
2018-04-15T07:41:34.482Z,1017.02
2018-04-15T07:42:34.326Z,1017.01
2018-04-15T07:43:34.490Z,1017.02
2018-04-15T07:44:34.394Z,1016.98
2018-04-15T07:45:34.277Z,1016.97
2018-04-15T07:46:34.381Z,1016.96
2018-04-15T07:47:34.467Z,1016.94
2018-04-15T07:48:34.452Z,1016.88
2018-04-15T07:49:34.297Z,1016.91
2018-04-15T07:50:34.292Z,1016.95
2018-04-15T07:51:34.441Z,1016.96
2018-04-15T07:52:34.262Z,1016.94
2018-04-15T07:53:34.540Z,1016.89
2018-04-15T07:54:34.333Z,1016.94
2018-04-15T07:55:34.320Z,1016.89
2018-04-15T07:56:34.466Z,1016.86
2018-04-15T07:57:34.274Z,1016.89
2018-04-15T07:58:34.501Z,1016.86
2018-04-15T07:59:34.337Z,1016.83
2018-04-15T08:00:34.414Z,1016.83
2018-04-15T08:01:34.309Z,1016.82
2018-04-15T08:02:34.421Z,1016.75
2018-04-15T08:03:34.377Z,1016.77
2018-04-15T08:04:34.354Z,1016.74
2018-04-15T08:05:34.351Z,1016.75
2018-04-15T08:06:34.451Z,1016.71
2018-04-15T08:07:34.281Z,1016.66
2018-04-15T08:08:34.463Z,1016.69
2018-04-15T08:09:34.363Z,1016.7
2018-04-15T08:10:34.400Z,1016.69
2018-04-15T08:11:34.309Z,1016.71
2018-04-15T08:12:34.506Z,1016.65
2018-04-15T08:13:34.533Z,1016.69
2018-04-15T08:14:34.539Z,1016.67
2018-04-15T08:15:34.291Z,1016.68
2018-04-15T08:16:34.270Z,1016.71
2018-04-15T08:17:34.405Z,1016.71
2018-04-15T08:18:34.326Z,1016.73
2018-04-15T08:19:34.382Z,1016.71
2018-04-15T08:20:34.424Z,1016.71
2018-04-15T08:21:34.349Z,1016.7
2018-04-15T08:22:34.373Z,1016.65
2018-04-15T08:23:34.445Z,1016.66
2018-04-15T08:24:34.467Z,1016.63
2018-04-15T08:25:34.328Z,1016.67
2018-04-15T08:26:34.412Z,1016.61
2018-04-15T08:27:34.431Z,1016.61
2018-04-15T08:28:34.380Z,1016.58
2018-04-15T08:29:34.371Z,1016.64
2018-04-15T08:30:34.454Z,1016.61
2018-04-15T08:31:34.531Z,1016.58
2018-04-15T08:32:34.238Z,1016.6
2018-04-15T08:33:34.291Z,1016.52
2018-04-15T08:34:34.320Z,1016.52
2018-04-15T08:35:34.452Z,1016.51
2018-04-15T08:36:34.346Z,1016.43
2018-04-15T08:37:34.509Z,1016.44
2018-04-15T08:38:34.371Z,1016.42
2018-04-15T08:39:34.549Z,1016.35
2018-04-15T08:40:34.452Z,1016.38
2018-04-15T08:41:34.499Z,1016.41
2018-04-15T08:42:34.269Z,1016.43
2018-04-15T08:43:34.369Z,1016.35
2018-04-15T08:44:34.375Z,1016.33
2018-04-15T08:45:34.411Z,1016.38
2018-04-15T08:46:34.265Z,1016.32
2018-04-15T08:47:36.551Z,1016.34
2018-04-15T08:48:34.342Z,1016.25
2018-04-15T08:49:34.481Z,1016.32
2018-04-15T08:50:34.222Z,1016.27
2018-04-15T08:51:34.439Z,1016.25
2018-04-15T08:52:35.545Z,1016.27
2018-04-15T08:53:34.548Z,1016.21
2018-04-15T08:54:34.499Z,1016.23
2018-04-15T08:55:34.274Z,1016.21
2018-04-15T08:56:34.371Z,1016.18
2018-04-15T08:57:34.426Z,1016.15
2018-04-15T08:58:34.527Z,1016.16
2018-04-15T08:59:34.430Z,1016.16
2018-04-15T09:00:34.485Z,1016.15
2018-04-15T09:01:34.727Z,1016.16
2018-04-15T09:02:34.568Z,1016.16
2018-04-15T09:03:34.321Z,1016.12
2018-04-15T09:04:34.439Z,1016.13
2018-04-15T09:05:34.398Z,1016.06
2018-04-15T09:06:34.466Z,1016.04
2018-04-15T09:07:34.396Z,1016.07
2018-04-15T09:08:34.295Z,1016.05
2018-04-15T09:09:34.412Z,1016.04
2018-04-15T09:10:34.286Z,1016.02
2018-04-15T09:11:34.637Z,1016.05
2018-04-15T09:12:34.464Z,1016.08
2018-04-15T09:13:34.553Z,1016.1
2018-04-15T09:14:34.294Z,1016.08
2018-04-15T09:15:35.396Z,1016.07
2018-04-15T09:16:34.429Z,1016.07
2018-04-15T09:17:34.464Z,1016.02
2018-04-15T09:18:34.366Z,1016.02
2018-04-15T09:19:34.283Z,1016
2018-04-15T09:20:34.547Z,1015.99
2018-04-15T09:21:34.266Z,1015.97
2018-04-15T09:22:34.219Z,1016.01
2018-04-15T09:23:34.317Z,1015.96
2018-04-15T09:24:34.418Z,1015.98
2018-04-15T09:25:34.289Z,1015.96
2018-04-15T09:26:34.465Z,1015.96
2018-04-15T09:27:34.225Z,1016.01
2018-04-15T09:28:34.322Z,1016.01
2018-04-15T09:29:34.442Z,1016.02
2018-04-15T09:30:34.482Z,1015.95
2018-04-15T09:31:34.289Z,1016.03
2018-04-15T09:32:34.288Z,1016.04
2018-04-15T09:33:34.425Z,1016.01
2018-04-15T09:34:34.423Z,1016
2018-04-15T09:35:34.424Z,1016.03
2018-04-15T09:36:34.467Z,1016.02
2018-04-15T09:37:34.248Z,1016.01
2018-04-15T09:38:34.291Z,1016.01
2018-04-15T09:39:34.314Z,1015.96
2018-04-15T09:40:34.300Z,1015.99
2018-04-15T09:41:34.491Z,1016.02
2018-04-15T09:42:34.245Z,1016.02
2018-04-15T09:43:34.380Z,1016.01
2018-04-15T09:44:34.279Z,1016.01
2018-04-15T09:45:34.390Z,1016.06
2018-04-15T09:46:34.243Z,1016.05
2018-04-15T09:47:34.319Z,1016.04
2018-04-15T09:48:34.409Z,1016.03
2018-04-15T09:49:34.333Z,1016.06
2018-04-15T09:50:34.353Z,1016.05
2018-04-15T09:51:34.321Z,1016.05
2018-04-15T09:52:34.397Z,1016.01
2018-04-15T09:53:34.449Z,1016.03
2018-04-15T09:54:34.328Z,1016.01
2018-04-15T09:55:34.323Z,1016.06
2018-04-15T09:56:34.249Z,1016
2018-04-15T09:57:34.216Z,1016.02
2018-04-15T09:58:34.431Z,1015.99
2018-04-15T09:59:34.340Z,1015.98
2018-04-15T10:00:34.487Z,1016.01
2018-04-15T10:01:34.499Z,1016.01
2018-04-15T10:02:34.239Z,1015.98
2018-04-15T10:03:34.348Z,1015.96
2018-04-15T10:04:34.450Z,1015.93
2018-04-15T10:05:34.315Z,1015.91
2018-04-15T10:06:34.502Z,1015.94
2018-04-15T10:07:34.337Z,1015.9
2018-04-15T10:08:34.471Z,1015.95
2018-04-15T10:09:34.329Z,1015.94
2018-04-15T10:10:34.214Z,1015.95
2018-04-15T10:11:34.435Z,1015.93
2018-04-15T10:12:34.468Z,1015.9
2018-04-15T10:13:34.289Z,1015.87
2018-04-15T10:14:34.266Z,1015.86
2018-04-15T10:15:34.380Z,1015.9
2018-04-15T10:16:34.384Z,1015.86
2018-04-15T10:17:34.472Z,1015.86
2018-04-15T10:18:34.305Z,1015.86
2018-04-15T10:19:34.370Z,1015.86
2018-04-15T10:20:34.438Z,1015.81
2018-04-15T10:21:34.401Z,1015.79
2018-04-15T10:22:34.319Z,1015.78
2018-04-15T10:23:34.308Z,1015.81
2018-04-15T10:24:34.205Z,1015.79
2018-04-15T10:25:34.553Z,1015.74
2018-04-15T10:26:34.425Z,1015.71
2018-04-15T10:27:34.571Z,1015.7
2018-04-15T10:28:34.495Z,1015.63
2018-04-15T10:29:35.927Z,1015.68
2018-04-15T10:30:34.228Z,1015.59
2018-04-15T10:31:34.251Z,1015.63
2018-04-15T10:32:34.317Z,1015.63
2018-04-15T10:33:34.261Z,1015.62
2018-04-15T10:34:34.475Z,1015.63
2018-04-15T10:35:34.473Z,1015.63
2018-04-15T10:36:34.304Z,1015.61
2018-04-15T10:37:34.349Z,1015.58
2018-04-15T10:38:34.226Z,1015.57
2018-04-15T10:39:34.384Z,1015.62
2018-04-15T10:40:36.401Z,1015.6
2018-04-15T10:41:34.374Z,1015.61
2018-04-15T10:42:34.203Z,1015.55
2018-04-15T10:43:36.995Z,1015.59
2018-04-15T10:44:34.848Z,1015.55
2018-04-15T10:45:36.443Z,1015.52
2018-04-15T10:46:34.644Z,1015.54
2018-04-15T10:47:34.270Z,1015.53
2018-04-15T10:48:34.314Z,1015.49
2018-04-15T10:49:34.331Z,1015.51
2018-04-15T10:50:34.211Z,1015.54
2018-04-15T10:51:34.407Z,1015.5
2018-04-15T10:52:34.419Z,1015.47
2018-04-15T10:53:34.414Z,1015.44
2018-04-15T10:54:36.725Z,1015.44
2018-04-15T10:55:34.309Z,1015.43
2018-04-15T10:56:34.366Z,1015.42
2018-04-15T10:57:34.257Z,1015.39
2018-04-15T10:58:34.275Z,1015.38
2018-04-15T10:59:34.378Z,1015.4
2018-04-15T11:00:34.236Z,1015.4
2018-04-15T11:01:34.404Z,1015.38
2018-04-15T11:02:34.366Z,1015.39
2018-04-15T11:03:34.309Z,1015.38
2018-04-15T11:04:37.009Z,1015.36
2018-04-15T11:05:34.303Z,1015.36
2018-04-15T11:06:34.346Z,1015.31
2018-04-15T11:07:34.854Z,1015.32
2018-04-15T11:08:34.179Z,1015.35
2018-04-15T11:09:34.412Z,1015.33
2018-04-15T11:10:34.336Z,1015.36
2018-04-15T11:11:34.455Z,1015.35
2018-04-15T11:12:34.193Z,1015.38
2018-04-15T11:13:34.573Z,1015.35
2018-04-15T11:14:34.695Z,1015.35
2018-04-15T11:15:34.503Z,1015.34
2018-04-15T11:16:34.379Z,1015.36
2018-04-15T11:17:34.360Z,1015.34
2018-04-15T11:18:34.432Z,1015.34
2018-04-15T11:19:34.312Z,1015.33
2018-04-15T11:20:34.382Z,1015.32
2018-04-15T11:21:34.319Z,1015.27
2018-04-15T11:22:34.301Z,1015.26
2018-04-15T11:23:34.412Z,1015.24
2018-04-15T11:24:34.281Z,1015.23
2018-04-15T11:25:34.255Z,1015.21
2018-04-15T11:26:34.346Z,1015.18
2018-04-15T11:27:34.590Z,1015.19
2018-04-15T11:28:34.499Z,1015.21
2018-04-15T11:29:34.429Z,1015.14
2018-04-15T11:30:34.357Z,1015.19
2018-04-15T11:31:34.364Z,1015.25
2018-04-15T11:32:35.089Z,1015.22
2018-04-15T11:33:34.345Z,1015.19
2018-04-15T11:34:34.414Z,1015.19
2018-04-15T11:35:34.389Z,1015.17
2018-04-15T11:36:34.548Z,1015.14
2018-04-15T11:37:34.246Z,1015.16
2018-04-15T11:38:34.395Z,1015.11
2018-04-15T11:39:34.285Z,1015.06
2018-04-15T11:40:34.286Z,1015.03
2018-04-15T11:41:34.414Z,1015.06
2018-04-15T11:42:34.492Z,1015.02
2018-04-15T11:43:34.317Z,1015.02
2018-04-15T11:44:34.336Z,1015.01
2018-04-15T11:45:34.485Z,1015
2018-04-15T11:46:34.439Z,1015.02
2018-04-15T11:47:34.469Z,1015
2018-04-15T11:48:34.244Z,1014.97
2018-04-15T11:49:34.453Z,1014.99
2018-04-15T11:50:34.208Z,1014.99
2018-04-15T11:51:34.795Z,1015
2018-04-15T11:52:34.338Z,1014.96
2018-04-15T11:53:34.392Z,1014.96
2018-04-15T11:54:34.463Z,1014.92
2018-04-15T11:55:34.280Z,1014.91
2018-04-15T11:56:34.462Z,1014.94
2018-04-15T11:57:34.308Z,1014.92
2018-04-15T11:58:34.426Z,1014.88
2018-04-15T11:59:34.456Z,1014.91
2018-04-15T12:00:34.453Z,1014.85
2018-04-15T12:01:34.440Z,1014.88
2018-04-15T12:02:34.292Z,1014.85
2018-04-15T12:03:34.358Z,1014.82
2018-04-15T12:04:34.286Z,1014.78
2018-04-15T12:05:34.299Z,1014.77
2018-04-15T12:06:34.259Z,1014.77
2018-04-15T12:07:34.215Z,1014.78
2018-04-15T12:08:34.431Z,1014.78